Terminal Aerodrome Forecast
Issued by NWS Hastings, NE

Current Version | Previous Version | Text Only | Print | Product List | Glossary On
Versions: 1 2 3 4 5 6 7 8 9 10 11 12 13 14
000
FTUS45 KGID 060520
TAFEAR
TAF
KEAR 060520Z 0606/0706 32014G24KT P6SM BKN080
     FM061400 29012G20KT P6SM FEW250
     FM061800 31019G27KT P6SM FEW250
     FM062100 31013KT P6SM FEW250
     FM070300 33004KT P6SM BKN100
      AMD LTD TO CLD VIS AND WIND=

USA.gov is the U.S. government's official web portal to all federal, state and local government web resources and services.